createdAt,value
2018-01-30T00:00:59.820Z,11.57
2018-01-30T00:03:27.338Z,12.37
2018-01-30T00:20:19.037Z,12.40
2018-01-30T00:31:24.813Z,12.40
2018-01-30T00:34:11.623Z,12.07
2018-01-30T00:39:32.059Z,11.13
2018-01-30T00:41:59.652Z,10.73
2018-01-30T00:44:27.248Z,10.97
2018-01-30T00:46:54.813Z,11.93
2018-01-30T00:49:23.020Z,12.07
2018-01-30T00:51:50.660Z,11.07
2018-01-30T00:54:18.297Z,11.80
2018-01-30T00:56:45.887Z,11.60
2018-01-30T00:59:13.536Z,11.60
2018-01-30T01:01:41.202Z,11.67
2018-01-30T01:04:08.722Z,10.37
2018-01-30T01:06:36.465Z,11.20
2018-01-30T01:09:04.086Z,11.10
2018-01-30T01:11:31.676Z,11.53
2018-01-30T01:13:59.197Z,10.43
2018-01-30T01:16:26.754Z,10.60
2018-01-30T01:18:54.345Z,10.87
2018-01-30T01:21:21.940Z,10.53
2018-01-30T01:23:49.543Z,10.57
2018-01-30T01:26:17.066Z,11.07
2018-01-30T01:28:44.655Z,11.10
2018-01-30T01:31:12.336Z,10.00
2018-01-30T01:33:39.928Z,11.33
2018-01-30T01:36:07.538Z,10.40
2018-01-30T01:38:35.165Z,10.10
2018-01-30T01:41:02.683Z,10.70
2018-01-30T01:43:30.328Z,10.23
2018-01-30T01:45:58.013Z,9.73
2018-01-30T01:48:25.609Z,10.17
2018-01-30T01:50:53.130Z,10.67
2018-01-30T01:53:20.761Z,10.00
2018-01-30T01:55:48.284Z,10.47
2018-01-30T01:58:15.926Z,10.47
2018-01-30T02:00:43.623Z,9.87
2018-01-30T02:03:11.270Z,9.60
2018-01-30T02:05:38.866Z,10.10
2018-01-30T02:08:06.768Z,9.67
2018-01-30T02:10:34.372Z,10.23
2018-01-30T02:13:01.958Z,8.97
2018-01-30T02:15:29.592Z,10.20
2018-01-30T02:17:57.236Z,9.90
2018-01-30T02:20:24.808Z,9.70
2018-01-30T02:22:52.366Z,9.33
2018-01-30T02:25:20.016Z,10.40
2018-01-30T02:27:47.608Z,9.50
2018-01-30T02:30:15.430Z,9.90
2018-01-30T02:32:43.016Z,9.47
2018-01-30T02:35:10.534Z,9.93
2018-01-30T02:37:38.236Z,10.00
2018-01-30T02:40:05.825Z,9.63
2018-01-30T02:42:33.477Z,10.07
2018-01-30T02:45:01.100Z,10.77
2018-01-30T02:47:28.622Z,11.13
2018-01-30T02:49:56.212Z,10.67
2018-01-30T02:52:23.895Z,10.47
2018-01-30T02:54:51.551Z,10.57
2018-01-30T02:57:19.197Z,10.13
2018-01-30T02:59:46.880Z,10.53
2018-01-30T03:02:14.406Z,10.73
2018-01-30T03:04:41.996Z,9.83
2018-01-30T03:07:09.554Z,10.27
2018-01-30T03:09:37.348Z,10.30
2018-01-30T03:12:05.044Z,10.10
2018-01-30T03:14:32.607Z,10.43
2018-01-30T03:17:00.204Z,9.97
2018-01-30T03:19:27.848Z,10.47
2018-01-30T03:21:55.482Z,10.40
2018-01-30T03:24:23.087Z,10.20
2018-01-30T03:26:50.728Z,9.97
2018-01-30T03:29:18.377Z,11.30
2018-01-30T03:31:45.918Z,9.90
2018-01-30T03:34:13.496Z,10.50
2018-01-30T03:36:41.328Z,9.97
2018-01-30T03:39:08.852Z,10.70
2018-01-30T03:41:36.494Z,9.67
2018-01-30T03:44:04.047Z,10.43
2018-01-30T03:46:31.572Z,10.13
2018-01-30T03:48:59.155Z,9.90
2018-01-30T03:51:26.780Z,10.70
2018-01-30T03:53:54.300Z,9.67
2018-01-30T03:56:21.895Z,10.60
2018-01-30T03:58:49.516Z,9.80
2018-01-30T04:01:17.124Z,9.87
2018-01-30T04:03:44.647Z,9.67
2018-01-30T04:06:12.331Z,9.60
2018-01-30T04:08:39.979Z,10.27
2018-01-30T04:11:07.624Z,9.50
2018-01-30T04:13:35.182Z,9.70
2018-01-30T04:16:02.766Z,9.73
2018-01-30T04:18:30.381Z,8.73
2018-01-30T04:20:57.942Z,9.30
2018-01-30T04:23:25.462Z,9.20
2018-01-30T04:25:53.048Z,8.43
2018-01-30T04:28:20.680Z,9.07
2018-01-30T04:30:48.198Z,9.27
2018-01-30T04:33:15.719Z,8.30
2018-01-30T04:35:43.396Z,9.10
2018-01-30T04:38:10.985Z,9.17
2018-01-30T04:40:38.632Z,8.73
2018-01-30T04:43:06.303Z,8.37
2018-01-30T04:45:33.819Z,8.67
2018-01-30T04:48:01.402Z,8.97
2018-01-30T04:50:29.020Z,8.47
2018-01-30T04:52:56.543Z,9.13
2018-01-30T04:55:24.180Z,8.10
2018-01-30T04:57:51.872Z,9.10
2018-01-30T05:00:19.532Z,8.47
2018-01-30T05:02:47.186Z,8.77
2018-01-30T05:05:14.827Z,8.53
2018-01-30T05:07:42.361Z,14.30
2018-01-30T05:10:09.959Z,12.80
2018-01-30T05:12:37.894Z,11.23
2018-01-30T05:15:05.404Z,12.03
2018-01-30T05:17:33.056Z,11.67
2018-01-30T05:20:00.714Z,11.60
2018-01-30T05:22:28.372Z,10.97
2018-01-30T05:24:55.960Z,11.47
2018-01-30T05:27:23.599Z,11.80
2018-01-30T05:29:51.194Z,11.60
2018-01-30T05:32:18.844Z,12.20
2018-01-30T05:34:46.541Z,10.97
2018-01-30T05:37:14.206Z,10.13
2018-01-30T05:39:41.780Z,10.50
2018-01-30T05:42:09.400Z,10.07
2018-01-30T05:44:36.987Z,10.97
2018-01-30T05:47:04.577Z,9.83
2018-01-30T05:49:32.164Z,10.40
2018-01-30T05:51:59.690Z,10.57
2018-01-30T05:54:27.332Z,10.40
2018-01-30T05:56:54.846Z,9.90
2018-01-30T05:59:22.438Z,10.27
2018-01-30T06:01:50.097Z,10.27
2018-01-30T06:04:17.746Z,10.90
2018-01-30T06:06:45.340Z,10.50
2018-01-30T06:09:12.972Z,9.80
2018-01-30T06:11:40.555Z,9.83
2018-01-30T06:14:08.476Z,9.90
2018-01-30T06:16:36.059Z,9.97
2018-01-30T06:19:03.724Z,10.13
2018-01-30T06:21:31.320Z,9.87
2018-01-30T06:23:59.012Z,10.43
2018-01-30T06:26:26.668Z,11.65
2018-01-30T06:28:54.265Z,11.27
2018-01-30T06:31:21.957Z,10.47
2018-01-30T06:33:49.600Z,12.50
2018-01-30T06:36:17.142Z,11.87
2018-01-30T06:38:44.776Z,11.80
2018-01-30T06:41:12.368Z,11.27
2018-01-30T06:43:40.017Z,12.00
2018-01-30T06:46:07.645Z,11.30
2018-01-30T06:48:35.250Z,11.30
2018-01-30T06:51:02.844Z,11.03
2018-01-30T06:53:30.507Z,11.20
2018-01-30T06:55:58.042Z,10.80
2018-01-30T06:58:25.628Z,11.47
2018-01-30T07:00:53.321Z,11.47
2018-01-30T07:03:20.980Z,11.13
2018-01-30T07:05:48.522Z,10.97
2018-01-30T07:08:16.216Z,11.90
2018-01-30T07:10:43.860Z,11.57
2018-01-30T07:13:11.454Z,11.73
2018-01-30T07:15:39.199Z,12.37
2018-01-30T07:18:06.944Z,12.73
2018-01-30T07:20:34.479Z,11.57
2018-01-30T07:23:02.165Z,11.23
2018-01-30T07:25:29.756Z,12.03
2018-01-30T07:27:57.349Z,11.17
2018-01-30T07:30:25.159Z,12.27
2018-01-30T07:32:52.747Z,12.00
2018-01-30T07:35:20.275Z,11.53
2018-01-30T07:37:48.103Z,10.90
2018-01-30T07:40:15.627Z,12.23
2018-01-30T07:42:43.228Z,12.00
2018-01-30T07:45:10.897Z,11.57
2018-01-30T07:47:38.686Z,11.80
2018-01-30T07:50:06.756Z,12.13
2018-01-30T07:52:34.619Z,14.20
2018-01-30T07:55:02.220Z,14.17
2018-01-30T07:57:29.738Z,14.70
2018-01-30T07:59:57.433Z,15.60
2018-01-30T08:02:25.028Z,15.83
2018-01-30T08:04:52.616Z,16.10
2018-01-30T08:07:20.313Z,17.33
2018-01-30T08:09:47.876Z,16.27
2018-01-30T08:12:15.461Z,17.87
2018-01-30T08:14:43.018Z,17.67
2018-01-30T08:17:10.609Z,16.93
2018-01-30T08:19:38.134Z,16.57
2018-01-30T08:22:05.761Z,16.77
2018-01-30T08:24:33.286Z,16.73
2018-01-30T08:27:00.812Z,16.80
2018-01-30T08:29:28.836Z,16.83
2018-01-30T08:31:56.622Z,16.63
2018-01-30T08:34:24.454Z,16.63
2018-01-30T08:36:52.318Z,17.47
2018-01-30T08:39:19.900Z,16.57
2018-01-30T08:41:48.131Z,17.13
2018-01-30T08:44:15.754Z,17.10
2018-01-30T08:46:43.336Z,17.03
2018-01-30T08:49:10.923Z,17.23
2018-01-30T08:51:38.568Z,17.17
2018-01-30T08:54:06.310Z,17.00
2018-01-30T08:56:33.901Z,17.07
2018-01-30T08:59:01.537Z,16.97
2018-01-30T09:01:29.055Z,17.67
2018-01-30T09:03:57.420Z,19.90
2018-01-30T09:06:25.061Z,21.50
2018-01-30T09:08:52.664Z,19.43
2018-01-30T09:11:20.252Z,20.00
2018-01-30T09:13:47.822Z,19.53
2018-01-30T09:16:15.507Z,21.33
2018-01-30T09:18:43.117Z,19.67
2018-01-30T09:21:10.749Z,19.50
2018-01-30T09:23:38.576Z,21.40
2018-01-30T09:26:06.169Z,21.87
2018-01-30T09:28:33.804Z,22.53
2018-01-30T09:31:01.392Z,22.30
2018-01-30T09:33:28.984Z,21.83
2018-01-30T09:35:56.746Z,21.77
2018-01-30T09:38:24.337Z,23.87
2018-01-30T09:40:52.011Z,24.03
2018-01-30T09:43:19.653Z,23.40
2018-01-30T09:45:47.171Z,24.10
2018-01-30T09:48:14.921Z,23.73
2018-01-30T09:50:42.606Z,24.57
2018-01-30T09:53:10.251Z,22.70
2018-01-30T09:55:37.888Z,22.60
2018-01-30T09:58:06.292Z,21.50
2018-01-30T10:00:34.036Z,21.03
2018-01-30T10:03:01.767Z,19.77
2018-01-30T10:05:29.452Z,19.47
2018-01-30T10:07:57.222Z,18.50
2018-01-30T10:10:24.986Z,18.77
2018-01-30T10:12:52.559Z,17.27
2018-01-30T10:15:20.106Z,17.13
2018-01-30T10:17:48.282Z,16.43
2018-01-30T10:20:15.909Z,15.40
2018-01-30T10:22:43.742Z,15.57
2018-01-30T10:25:11.342Z,15.23
2018-01-30T10:27:39.130Z,14.63
2018-01-30T10:30:06.733Z,14.27
2018-01-30T10:32:34.351Z,14.10
2018-01-30T10:35:01.981Z,13.77
2018-01-30T10:37:29.617Z,13.17
2018-01-30T10:39:57.208Z,13.23
2018-01-30T10:42:24.906Z,13.77
2018-01-30T10:44:52.528Z,13.90
2018-01-30T10:47:20.172Z,12.47
2018-01-30T10:49:47.840Z,13.10
2018-01-30T10:52:15.428Z,12.87
2018-01-30T10:54:43.072Z,14.10
2018-01-30T10:57:10.755Z,14.87
2018-01-30T10:59:38.347Z,15.50
2018-01-30T11:02:05.936Z,15.17
2018-01-30T11:04:33.580Z,15.97
2018-01-30T11:07:01.211Z,21.27
2018-01-30T11:09:28.779Z,26.67
2018-01-30T11:11:56.332Z,24.43
2018-01-30T11:14:23.856Z,26.93
2018-01-30T11:16:51.496Z,23.80
2018-01-30T11:19:19.100Z,27.40
2018-01-30T11:21:46.755Z,30.67
2018-01-30T11:24:14.447Z,28.83
2018-01-30T11:26:41.970Z,31.23
2018-01-30T11:29:09.557Z,31.67
2018-01-30T11:31:37.185Z,30.87
2018-01-30T11:34:04.776Z,29.30
2018-01-30T11:36:52.388Z,28.63
2018-01-30T11:39:20.036Z,26.70
2018-01-30T11:41:47.624Z,21.17
2018-01-30T11:44:15.147Z,20.63
2018-01-30T11:46:42.674Z,22.23
2018-01-30T11:49:10.917Z,21.43
2018-01-30T11:51:38.438Z,20.50
2018-01-30T11:54:05.966Z,18.83
2018-01-30T11:56:33.577Z,19.67
2018-01-30T11:59:01.106Z,18.67
2018-01-30T12:01:28.626Z,18.20
2018-01-30T12:03:56.150Z,18.97
2018-01-30T12:06:23.674Z,18.27
2018-01-30T12:08:51.380Z,18.10
2018-01-30T12:11:18.981Z,17.60
2018-01-30T12:13:46.579Z,17.27
2018-01-30T12:16:14.172Z,18.00
2018-01-30T12:18:41.813Z,16.97
2018-01-30T12:21:09.334Z,17.50
2018-01-30T12:23:36.854Z,17.27
2018-01-30T12:26:04.452Z,16.87
2018-01-30T12:28:32.036Z,16.77
2018-01-30T12:30:59.560Z,16.20
2018-01-30T12:33:27.147Z,17.73
2018-01-30T12:35:54.835Z,15.63
2018-01-30T12:38:22.357Z,16.33
2018-01-30T12:40:49.940Z,15.13
2018-01-30T12:43:17.506Z,15.47
2018-01-30T12:45:45.063Z,15.43
2018-01-30T12:48:12.583Z,15.63
2018-01-30T12:50:40.383Z,15.40
2018-01-30T12:53:07.914Z,15.43
2018-01-30T12:55:35.513Z,17.00
2018-01-30T12:58:03.149Z,15.00
2018-01-30T13:00:30.670Z,15.30
2018-01-30T13:02:58.199Z,16.03
2018-01-30T13:05:26.372Z,15.33
2018-01-30T13:07:53.965Z,15.40
2018-01-30T13:10:21.579Z,14.87
2018-01-30T13:12:49.188Z,15.13
2018-01-30T13:15:16.999Z,16.10
2018-01-30T13:17:44.522Z,14.30
2018-01-30T13:20:12.197Z,15.33
2018-01-30T13:22:39.750Z,14.83
2018-01-30T13:25:07.941Z,14.70
2018-01-30T13:27:35.559Z,15.07
2018-01-30T13:30:03.050Z,14.17
2018-01-30T13:32:30.573Z,14.93
2018-01-30T13:34:58.165Z,15.80
2018-01-30T13:37:25.771Z,15.57
2018-01-30T13:39:53.359Z,15.83
2018-01-30T13:42:21.170Z,17.10
2018-01-30T13:44:48.799Z,16.00
2018-01-30T13:47:16.322Z,17.40
2018-01-30T13:49:43.850Z,16.17
2018-01-30T13:52:11.439Z,17.23
2018-01-30T13:54:39.048Z,16.63
2018-01-30T13:57:06.694Z,17.77
2018-01-30T13:59:34.304Z,17.67
2018-01-30T14:02:01.905Z,17.97
2018-01-30T14:04:29.498Z,18.40
2018-01-30T14:06:57.088Z,17.47
2018-01-30T14:09:24.736Z,16.50
2018-01-30T14:11:52.388Z,17.20
2018-01-30T14:14:19.993Z,16.83
2018-01-30T14:16:47.512Z,16.50
2018-01-30T14:19:15.100Z,16.03
2018-01-30T14:21:42.692Z,14.97
2018-01-30T14:24:10.282Z,15.43
2018-01-30T14:26:37.802Z,15.53
2018-01-30T14:29:05.393Z,15.37
2018-01-30T14:31:32.914Z,14.07
2018-01-30T14:34:00.503Z,15.43
2018-01-30T14:36:28.183Z,14.40
2018-01-30T14:38:55.811Z,15.10
2018-01-30T14:41:23.465Z,14.40
2018-01-30T14:43:51.106Z,13.37
2018-01-30T14:46:18.748Z,14.97
2018-01-30T14:48:46.336Z,16.20
2018-01-30T14:51:13.859Z,15.53
2018-01-30T14:53:41.504Z,15.67
2018-01-30T14:56:09.162Z,17.17
2018-01-30T14:58:36.757Z,15.90
2018-01-30T15:01:04.407Z,16.20
2018-01-30T15:03:32.021Z,15.40
2018-01-30T15:05:59.636Z,15.57
2018-01-30T15:08:27.163Z,16.17
2018-01-30T15:10:54.685Z,15.90
2018-01-30T15:13:22.202Z,15.37
2018-01-30T15:15:49.807Z,15.17
2018-01-30T15:18:17.335Z,15.30
2018-01-30T15:20:44.941Z,15.60
2018-01-30T15:23:12.459Z,15.00
2018-01-30T15:25:40.020Z,15.70
2018-01-30T15:28:07.542Z,14.73
2018-01-30T15:30:35.133Z,14.63
2018-01-30T15:33:02.720Z,14.40
2018-01-30T15:35:30.365Z,14.53
2018-01-30T15:37:57.955Z,14.40
2018-01-30T15:40:25.642Z,13.00
2018-01-30T15:42:53.165Z,14.13
2018-01-30T15:45:20.702Z,13.73
2018-01-30T15:47:48.363Z,12.60
2018-01-30T15:50:16.012Z,12.43
2018-01-30T15:52:43.612Z,13.00
2018-01-30T15:55:11.135Z,14.03
2018-01-30T15:57:38.664Z,13.77
2018-01-30T16:00:06.251Z,13.47
2018-01-30T16:02:33.798Z,13.40
2018-01-30T16:05:01.383Z,13.73
2018-01-30T16:07:28.978Z,12.13
2018-01-30T16:09:56.572Z,9.60
2018-01-30T16:12:24.157Z,10.00
2018-01-30T16:14:51.808Z,8.67
2018-01-30T16:17:19.404Z,8.20
2018-01-30T16:19:47.044Z,8.97
2018-01-30T16:22:14.682Z,9.67
2018-01-30T16:24:42.336Z,8.70
2018-01-30T16:27:09.883Z,9.23
2018-01-30T16:29:37.413Z,9.23
2018-01-30T16:32:05.008Z,9.60
2018-01-30T16:34:32.568Z,11.77
2018-01-30T16:37:00.245Z,11.80
2018-01-30T16:39:27.895Z,10.27
2018-01-30T16:41:55.492Z,11.67
2018-01-30T16:44:23.022Z,11.27
2018-01-30T16:46:50.641Z,12.53
2018-01-30T16:49:18.296Z,11.97
2018-01-30T16:51:45.956Z,12.93
2018-01-30T16:54:13.480Z,13.30
2018-01-30T16:56:41.019Z,13.37
2018-01-30T16:59:08.621Z,13.03
2018-01-30T17:01:36.301Z,81.47
2018-01-30T17:04:03.925Z,233.30
2018-01-30T17:06:31.591Z,95.33
2018-01-30T17:08:59.205Z,81.33
2018-01-30T17:11:26.816Z,72.87
2018-01-30T17:13:54.440Z,72.97
2018-01-30T17:16:22.044Z,70.23
2018-01-30T17:18:49.700Z,70.70
2018-01-30T17:21:17.230Z,66.67
2018-01-30T17:23:44.902Z,64.83
2018-01-30T17:26:12.439Z,63.67
2018-01-30T17:28:40.096Z,65.07
2018-01-30T17:31:07.750Z,62.57
2018-01-30T17:33:35.362Z,60.73
2018-01-30T17:36:02.959Z,54.73
2018-01-30T17:38:30.608Z,51.30
2018-01-30T17:40:58.260Z,49.77
2018-01-30T17:43:25.888Z,48.30
2018-01-30T17:45:53.578Z,46.97
2018-01-30T17:48:21.106Z,47.90
2018-01-30T17:50:48.707Z,44.60
2018-01-30T17:53:16.234Z,43.57
2018-01-30T17:55:43.888Z,43.77
2018-01-30T17:58:11.554Z,41.40
2018-01-30T18:00:39.103Z,38.90
2018-01-30T18:03:06.692Z,37.60
2018-01-30T18:05:34.283Z,36.93
2018-01-30T18:08:01.798Z,34.40
2018-01-30T18:10:29.338Z,32.17
2018-01-30T18:12:56.939Z,32.33
2018-01-30T18:15:24.588Z,31.63
2018-01-30T18:17:52.115Z,30.70
2018-01-30T18:20:19.765Z,31.93
2018-01-30T18:22:47.421Z,30.23
2018-01-30T18:25:15.087Z,30.13
2018-01-30T18:27:42.691Z,29.17
2018-01-30T18:30:10.292Z,28.53
2018-01-30T18:32:37.819Z,27.40
2018-01-30T18:35:05.947Z,28.47
2018-01-30T18:37:33.884Z,27.27
2018-01-30T18:40:01.555Z,28.20
2018-01-30T18:42:29.151Z,25.27
2018-01-30T18:44:56.761Z,22.50
2018-01-30T18:47:24.366Z,23.77
2018-01-30T18:49:52.301Z,23.27
2018-01-30T18:52:19.948Z,23.17
2018-01-30T18:54:47.596Z,22.53
2018-01-30T18:57:15.244Z,21.73
2018-01-30T18:59:42.901Z,22.03
2018-01-30T19:02:10.492Z,20.80
2018-01-30T19:07:10.118Z,18.77
2018-01-30T19:09:37.749Z,19.73
2018-01-30T19:12:05.376Z,19.80
2018-01-30T19:14:33.028Z,18.93
2018-01-30T19:17:00.559Z,18.73
2018-01-30T19:19:28.155Z,18.53
2018-01-30T19:21:55.801Z,18.30
2018-01-30T19:24:23.461Z,17.33
2018-01-30T19:26:51.068Z,18.17
2018-01-30T19:29:18.668Z,17.77
2018-01-30T19:31:46.268Z,16.87
2018-01-30T19:34:13.878Z,16.30
2018-01-30T19:36:41.477Z,15.83
2018-01-30T19:39:09.071Z,16.53
2018-01-30T19:41:36.730Z,15.47
2018-01-30T19:44:04.389Z,15.30
2018-01-30T19:46:31.999Z,15.03
2018-01-30T19:48:59.589Z,14.30
2018-01-30T19:51:27.201Z,14.60
2018-01-30T19:53:54.729Z,14.33
2018-01-30T19:56:22.321Z,14.20
2018-01-30T19:58:49.959Z,13.40
2018-01-30T20:01:17.641Z,14.53
2018-01-30T20:03:45.178Z,14.63
2018-01-30T20:06:12.704Z,13.93
2018-01-30T20:08:40.352Z,12.83
2018-01-30T20:11:07.874Z,13.57
2018-01-30T20:13:35.519Z,13.13
2018-01-30T20:16:03.122Z,12.63
2018-01-30T20:18:30.730Z,13.23
2018-01-30T20:20:58.331Z,12.50
2018-01-30T20:23:25.921Z,13.00
2018-01-30T20:25:53.564Z,12.83
2018-01-30T20:28:21.171Z,12.87
2018-01-30T20:30:48.694Z,12.70
2018-01-30T20:33:16.349Z,12.20
2018-01-30T20:35:43.952Z,12.67
2018-01-30T20:38:11.596Z,11.73
2018-01-30T20:40:39.122Z,12.27
2018-01-30T20:43:07.554Z,12.33
2018-01-30T20:45:35.165Z,11.20
2018-01-30T20:48:02.761Z,11.60
2018-01-30T20:50:30.348Z,11.80
2018-01-30T20:52:57.944Z,11.33
2018-01-30T20:55:25.585Z,11.03
2018-01-30T20:57:53.179Z,11.77
2018-01-30T21:00:20.838Z,12.07
2018-01-30T21:02:48.432Z,11.30
2018-01-30T21:05:16.055Z,11.43
2018-01-30T21:07:43.709Z,11.13
2018-01-30T21:10:11.353Z,10.47
2018-01-30T21:12:38.936Z,10.53
2018-01-30T21:15:06.608Z,11.37
2018-01-30T21:17:34.194Z,9.97
2018-01-30T21:20:01.796Z,10.53
2018-01-30T21:22:29.444Z,10.73
2018-01-30T21:24:57.053Z,10.17
2018-01-30T21:27:25.494Z,10.27
2018-01-30T21:29:53.022Z,9.67
2018-01-30T21:32:20.663Z,9.07
2018-01-30T21:34:48.249Z,9.53
2018-01-30T21:37:15.847Z,10.17
2018-01-30T21:39:43.432Z,9.80
2018-01-30T21:42:11.085Z,9.87
2018-01-30T21:44:38.602Z,9.87
2018-01-30T21:47:06.119Z,9.93
2018-01-30T21:49:33.711Z,9.17
2018-01-30T21:52:01.411Z,10.30
2018-01-30T21:54:29.077Z,9.63
2018-01-30T21:56:56.598Z,8.93
2018-01-30T21:59:24.245Z,9.50
2018-01-30T22:01:51.892Z,9.70
2018-01-30T22:04:19.536Z,9.23
2018-01-30T22:06:47.176Z,9.83
2018-01-30T22:09:14.764Z,9.13
2018-01-30T22:11:42.287Z,8.83
2018-01-30T22:14:09.928Z,9.70
2018-01-30T22:16:37.519Z,8.90
2018-01-30T22:19:05.165Z,9.30
2018-01-30T22:21:32.688Z,9.20
2018-01-30T22:24:00.348Z,9.20
2018-01-30T22:26:27.936Z,8.50
2018-01-30T22:28:55.450Z,8.73
2018-01-30T22:31:23.100Z,9.27
2018-01-30T22:33:50.658Z,8.60
2018-01-30T22:36:18.176Z,8.37
2018-01-30T22:38:45.756Z,8.63
2018-01-30T22:41:13.279Z,8.47
2018-01-30T22:43:40.984Z,8.47
2018-01-30T22:46:08.564Z,8.67
